Time;durP1;ratioP1;P1;durP2;ratioP2;P2;SDS_P1;SDS_P2;PMS_P1;PMS_P2;Temp;Humidity;BMP_temperature;BMP_pressure;BME280_temperature;BME280_humidity;BME280_pressure;Samples;Min_cycle;Max_cycle;Signal;HPM_P1;HPM_P2
2024/01/06 00:01:47;;;;;;;1.10;1.10;;;7.00;99.90;;;;;;5048855;28;20491;-88
2024/01/06 00:04:13;;;;;;;1.10;1.10;;;7.00;99.90;;;;;;5047564;28;20062;-89
2024/01/06 00:06:38;;;;;;;1.10;1.10;;;7.30;99.90;;;;;;5033009;28;20047;-88
2024/01/06 00:09:04;;;;;;;1.20;1.20;;;7.30;99.90;;;;;;5045085;28;20120;-87
2024/01/06 00:11:30;;;;;;;1.20;1.20;;;7.30;99.90;;;;;;5033704;28;20096;-91
2024/01/06 00:13:55;;;;;;;1.15;1.15;;;7.00;99.90;;;;;;5047891;28;20048;-88
2024/01/06 00:16:21;;;;;;;1.10;1.10;;;7.00;99.90;;;;;;5034502;28;20052;-89
2024/01/06 00:18:47;;;;;;;1.20;1.20;;;7.20;99.90;;;;;;5028316;28;20147;-89
2024/01/06 00:21:13;;;;;;;1.10;1.10;;;6.90;99.90;;;;;;5029879;28;20037;-89
2024/01/06 00:23:42;;;;;;;1.10;1.10;;;6.80;99.90;;;;;;5034203;28;20107;-88
2024/01/06 00:26:09;;;;;;;1.20;1.20;;;6.90;99.90;;;;;;5048780;28;21540;-89
2024/01/06 00:28:35;;;;;;;1.10;1.10;;;7.20;99.90;;;;;;5047909;28;20114;-89
2024/01/06 00:31:01;;;;;;;1.10;1.10;;;7.30;99.90;;;;;;5050024;28;20561;-89
2024/01/06 00:33:28;;;;;;;1.10;1.10;;;7.00;99.90;;;;;;5048571;28;20132;-89
2024/01/06 00:35:55;;;;;;;1.10;1.10;;;7.20;99.90;;;;;;5044214;28;20044;-88
2024/01/06 00:38:21;;;;;;;1.15;1.15;;;6.80;99.90;;;;;;5029392;28;20048;-87
2024/01/06 00:40:47;;;;;;;1.10;1.10;;;7.00;99.90;;;;;;5044665;28;20127;-89
2024/01/06 00:43:12;;;;;;;1.23;1.23;;;7.10;99.90;;;;;;5045670;28;20041;-88
2024/01/06 00:45:38;;;;;;;1.20;1.20;;;7.10;99.90;;;;;;5052109;28;20485;-89
2024/01/06 00:48:05;;;;;;;1.23;1.23;;;6.80;99.90;;;;;;5032009;28;20036;-89
2024/01/06 00:50:30;;;;;;;1.20;1.20;;;6.90;99.90;;;;;;5049474;28;20505;-89
2024/01/06 00:52:56;;;;;;;1.20;1.20;;;6.70;99.90;;;;;;5044805;28;20084;-89
2024/01/06 00:55:23;;;;;;;1.20;1.20;;;6.70;99.90;;;;;;5024484;28;20131;-89
2024/01/06 00:57:52;;;;;;;1.20;1.20;;;6.80;99.90;;;;;;5046385;28;20039;-88
2024/01/06 01:00:17;;;;;;;1.20;1.20;;;6.90;99.90;;;;;;5022652;28;20048;-88
2024/01/06 01:02:43;;;;;;;1.20;1.20;;;7.00;99.90;;;;;;5042856;28;20041;-89
2024/01/06 01:05:09;;;;;;;1.20;1.20;;;6.90;99.90;;;;;;5032181;28;20045;-88
2024/01/06 01:07:35;;;;;;;1.27;1.27;;;6.80;99.90;;;;;;5043859;28;20068;-88
2024/01/06 01:10:01;;;;;;;1.20;1.20;;;6.90;99.90;;;;;;5041943;28;20062;-89
2024/01/06 01:12:26;;;;;;;1.20;1.20;;;6.50;99.90;;;;;;5042740;28;20044;-88
2024/01/06 01:14:53;;;;;;;1.20;1.20;;;6.50;99.90;;;;;;5029879;28;20049;-89
2024/01/06 01:17:19;;;;;;;1.20;1.20;;;6.40;99.90;;;;;;5024116;28;20047;-88
2024/01/06 01:19:45;;;;;;;1.30;1.30;;;6.60;99.90;;;;;;5042675;28;20040;-89
2024/01/06 01:22:12;;;;;;;1.30;1.30;;;6.70;99.90;;;;;;5048833;28;20167;-89
2024/01/06 01:24:37;;;;;;;1.30;1.30;;;6.70;99.90;;;;;;5034084;28;20134;-89
2024/01/06 01:27:03;;;;;;;1.30;1.30;;;6.70;99.90;;;;;;5043283;28;20704;-89
2024/01/06 01:29:29;;;;;;;1.30;1.30;;;6.60;99.90;;;;;;5024692;28;20032;-88
2024/01/06 01:31:55;;;;;;;1.50;1.40;;;6.30;99.90;;;;;;5044510;28;20075;-88
2024/01/06 01:34:20;;;;;;;1.52;1.42;;;6.80;99.90;;;;;;5059926;28;20056;-88
2024/01/06 01:36:46;;;;;;;1.60;1.50;;;6.70;99.90;;;;;;5045376;28;20123;-89
2024/01/06 01:39:12;;;;;;;1.60;1.50;;;6.30;99.90;;;;;;5043144;28;20123;-88
2024/01/06 01:41:38;;;;;;;1.60;1.50;;;6.60;99.90;;;;;;5063761;28;20505;-89
2024/01/06 01:44:03;;;;;;;1.58;1.48;;;6.30;99.90;;;;;;5047835;28;20127;-88
2024/01/06 01:46:30;;;;;;;1.60;1.50;;;6.40;99.90;;;;;;5030181;28;20053;-89
2024/01/06 01:48:57;;;;;;;1.70;1.60;;;6.60;99.90;;;;;;5032054;28;20441;-89
2024/01/06 01:51:27;;;;;;;1.70;1.60;;;6.60;99.90;;;;;;5047937;28;21014;-90
2024/01/06 01:53:53;;;;;;;1.80;1.70;;;6.40;99.90;;;;;;5032832;28;20040;-89
2024/01/06 01:56:19;;;;;;;1.73;1.63;;;6.50;99.90;;;;;;5045778;28;20106;-87
2024/01/06 01:58:46;;;;;;;1.70;1.60;;;6.30;99.90;;;;;;5048748;28;20044;-90
2024/01/06 02:01:12;;;;;;;1.80;1.70;;;6.40;99.90;;;;;;5045760;28;20044;-88
2024/01/06 02:03:40;;;;;;;1.70;1.60;;;6.10;99.90;;;;;;5026061;28;20048;-88
2024/01/06 02:06:06;;;;;;;1.83;1.73;;;6.40;99.90;;;;;;5049824;28;20053;-88
2024/01/06 02:08:32;;;;;;;1.80;1.70;;;6.00;99.90;;;;;;5037507;28;20054;-88
2024/01/06 02:10:57;;;;;;;1.80;1.70;;;6.40;99.90;;;;;;5030462;28;20513;-88
2024/01/06 02:13:24;;;;;;;1.80;1.70;;;6.30;99.90;;;;;;5026137;28;20056;-89
2024/01/06 02:15:50;;;;;;;1.83;1.73;;;6.50;99.90;;;;;;5044626;28;20502;-89
2024/01/06 02:18:16;;;;;;;1.90;1.80;;;6.00;99.90;;;;;;5045988;28;20537;-89
2024/01/06 02:20:48;;;;;;;1.70;1.60;;;6.30;99.90;;;;;;5047996;28;20044;-89
2024/01/06 02:23:13;;;;;;;1.80;1.70;;;6.10;99.90;;;;;;5053028;28;20052;-90
2024/01/06 02:25:39;;;;;;;1.75;1.65;;;6.40;99.90;;;;;;5050665;28;20048;-89
2024/01/06 02:28:05;;;;;;;1.85;1.75;;;6.20;99.90;;;;;;5044217;28;20072;-89
2024/01/06 02:30:31;;;;;;;1.80;1.70;;;5.90;99.90;;;;;;5036894;28;20040;-90
2024/01/06 02:32:56;;;;;;;1.90;1.80;;;6.00;99.90;;;;;;5035512;28;20448;-88
2024/01/06 02:35:22;;;;;;;1.80;1.70;;;6.40;99.90;;;;;;5053967;28;20037;-88
2024/01/06 02:37:48;;;;;;;1.70;1.60;;;6.10;99.90;;;;;;5051112;28;20029;-88
2024/01/06 02:40:14;;;;;;;1.80;1.70;;;6.50;99.90;;;;;;5033520;28;20686;-89
2024/01/06 02:42:39;;;;;;;1.90;1.80;;;6.40;99.90;;;;;;5051456;28;20036;-89
2024/01/06 02:45:07;;;;;;;1.90;1.80;;;5.90;99.90;;;;;;5048860;28;20364;-89
2024/01/06 02:47:33;;;;;;;1.80;1.70;;;6.00;99.90;;;;;;5035285;28;20060;-89
2024/01/06 02:49:58;;;;;;;1.90;1.80;;;6.10;99.90;;;;;;5035505;28;20044;-88
2024/01/06 02:52:24;;;;;;;2.00;1.90;;;6.30;99.90;;;;;;5036511;28;20036;-89
2024/01/06 02:54:50;;;;;;;1.90;1.80;;;6.20;99.90;;;;;;5046758;28;20418;-89
2024/01/06 02:57:15;;;;;;;1.95;1.85;;;6.30;99.90;;;;;;5035631;28;20099;-89
2024/01/06 02:59:41;;;;;;;1.98;1.88;;;6.20;99.90;;;;;;5034026;28;20057;-90
2024/01/06 03:02:07;;;;;;;1.90;1.80;;;6.00;99.90;;;;;;5036504;28;20056;-90
2024/01/06 03:04:33;;;;;;;1.80;1.70;;;6.00;99.90;;;;;;5032768;28;20060;-89
2024/01/06 03:06:59;;;;;;;1.90;1.80;;;6.10;99.90;;;;;;5034440;28;20048;-90
2024/01/06 03:09:24;;;;;;;1.98;1.88;;;5.90;99.90;;;;;;5031470;28;20095;-88
2024/01/06 03:11:50;;;;;;;2.00;1.90;;;5.80;99.90;;;;;;5031218;28;20051;-89
2024/01/06 03:14:16;;;;;;;1.90;1.80;;;6.20;99.90;;;;;;5036659;28;20366;-89
2024/01/06 03:16:41;;;;;;;1.70;1.60;;;5.90;99.90;;;;;;5052282;28;20051;-89
2024/01/06 03:19:07;;;;;;;1.73;1.63;;;5.90;99.90;;;;;;5048868;28;20523;-89
2024/01/06 03:21:33;;;;;;;1.88;1.77;;;6.10;99.90;;;;;;5049200;28;20191;-88
2024/01/06 03:23:58;;;;;;;1.80;1.70;;;5.70;99.90;;;;;;5034133;28;20059;-88
2024/01/06 03:26:24;;;;;;;1.90;1.80;;;6.20;99.90;;;;;;5049548;28;20071;-89
2024/01/06 03:28:50;;;;;;;1.90;1.80;;;5.80;99.90;;;;;;5030821;28;20123;-89
2024/01/06 03:31:16;;;;;;;1.90;1.80;;;6.00;99.90;;;;;;5063766;28;20044;-89
2024/01/06 03:33:43;;;;;;;1.90;1.80;;;5.70;99.90;;;;;;5047874;28;20048;-90
2024/01/06 03:36:12;;;;;;;2.00;1.90;;;5.80;99.90;;;;;;5043491;28;20075;-89
2024/01/06 03:38:37;;;;;;;1.80;1.70;;;6.20;99.90;;;;;;5034457;28;20426;-89
2024/01/06 03:41:03;;;;;;;1.90;1.80;;;5.90;99.90;;;;;;5031882;28;20045;-89
2024/01/06 03:43:29;;;;;;;1.90;1.80;;;5.80;99.90;;;;;;5045920;28;20621;-89
2024/01/06 03:45:56;;;;;;;1.90;1.80;;;6.20;99.90;;;;;;5048181;28;20068;-88
2024/01/06 03:48:22;;;;;;;1.80;1.70;;;6.10;99.90;;;;;;5035824;28;20498;-89
2024/01/06 03:50:47;;;;;;;1.80;1.70;;;5.60;99.90;;;;;;5032751;28;20079;-89
2024/01/06 03:53:13;;;;;;;1.80;1.70;;;5.60;99.90;;;;;;5030863;28;20044;-89
2024/01/06 03:55:39;;;;;;;1.83;1.73;;;6.10;99.90;;;;;;5050205;28;20052;-89
2024/01/06 03:58:05;;;;;;;1.80;1.70;;;5.90;99.90;;;;;;5032579;28;20043;-90
2024/01/06 04:00:31;;;;;;;1.90;1.80;;;6.10;99.90;;;;;;5035751;28;20040;-89
2024/01/06 04:02:57;;;;;;;1.80;1.70;;;6.10;99.90;;;;;;5033092;28;20051;-88
2024/01/06 04:05:23;;;;;;;1.88;1.77;;;6.10;99.90;;;;;;5050462;28;20429;-89
2024/01/06 04:07:49;;;;;;;1.85;1.75;;;5.80;99.90;;;;;;5034274;28;20071;-89
2024/01/06 04:10:15;;;;;;;1.92;1.83;;;5.90;99.90;;;;;;5052093;28;20044;-89
2024/01/06 04:12:40;;;;;;;1.90;1.80;;;5.90;99.90;;;;;;5048203;28;20055;-89
2024/01/06 04:15:06;;;;;;;1.77;1.67;;;6.00;99.90;;;;;;5049251;28;20048;-88
2024/01/06 04:17:32;;;;;;;1.80;1.70;;;5.90;99.90;;;;;;5032112;28;20097;-89
2024/01/06 04:19:58;;;;;;;1.63;1.52;;;5.60;99.90;;;;;;5032685;28;20041;-89
2024/01/06 04:22:24;;;;;;;1.70;1.60;;;5.80;99.90;;;;;;5036149;28;20606;-89
2024/01/06 04:24:50;;;;;;;1.65;1.55;;;6.10;99.90;;;;;;5045291;28;20123;-89
2024/01/06 04:27:16;;;;;;;1.70;1.60;;;5.60;99.90;;;;;;5032899;28;20123;-89
2024/01/06 04:29:41;;;;;;;1.77;1.67;;;6.30;99.90;;;;;;5031016;28;20044;-89
2024/01/06 04:32:07;;;;;;;1.70;1.60;;;5.70;99.90;;;;;;5032228;28;20074;-89
2024/01/06 04:34:33;;;;;;;1.80;1.70;;;6.00;99.90;;;;;;5050970;28;20079;-89
2024/01/06 04:36:59;;;;;;;1.73;1.63;;;5.60;99.90;;;;;;5051083;28;20101;-88
2024/01/06 04:39:25;;;;;;;1.73;1.63;;;5.70;99.90;;;;;;5053433;28;20387;-89
2024/01/06 04:41:50;;;;;;;1.75;1.65;;;5.90;99.90;;;;;;5053950;28;20101;-88
2024/01/06 04:44:18;;;;;;;1.83;1.73;;;5.60;99.90;;;;;;5056435;28;20051;-89
2024/01/06 04:46:43;;;;;;;1.85;1.75;;;6.10;99.90;;;;;;5051944;28;20443;-89
2024/01/06 04:49:10;;;;;;;1.80;1.70;;;5.50;99.90;;;;;;5033722;28;20049;-89
2024/01/06 04:51:35;;;;;;;1.80;1.70;;;5.60;99.90;;;;;;5052503;28;20048;-89
2024/01/06 04:54:01;;;;;;;1.80;1.70;;;5.50;99.90;;;;;;5031201;28;20764;-89
2024/01/06 04:56:27;;;;;;;1.85;1.75;;;6.00;99.90;;;;;;5030253;28;20040;-87
2024/01/06 04:58:52;;;;;;;1.80;1.70;;;5.80;99.90;;;;;;5033821;28;20527;-88
2024/01/06 05:01:18;;;;;;;1.77;1.67;;;5.70;99.90;;;;;;5034295;28;20032;-88
2024/01/06 05:03:44;;;;;;;1.77;1.67;;;5.50;99.90;;;;;;5035788;28;20420;-90
2024/01/06 05:06:10;;;;;;;1.77;1.67;;;5.60;99.90;;;;;;5031881;28;20051;-89
2024/01/06 05:08:38;;;;;;;1.73;1.63;;;5.90;99.90;;;;;;5047961;28;20090;-88
2024/01/06 05:11:05;;;;;;;1.85;1.75;;;6.00;99.90;;;;;;5049757;28;20036;-88
2024/01/06 05:13:31;;;;;;;1.80;1.70;;;5.50;99.90;;;;;;5036784;28;20044;-89
2024/01/06 05:15:57;;;;;;;1.80;1.70;;;5.80;99.90;;;;;;5027786;28;20130;-88
2024/01/06 05:18:22;;;;;;;1.75;1.65;;;5.80;99.90;;;;;;5045728;28;20547;-87
2024/01/06 05:20:48;;;;;;;1.75;1.65;;;5.90;99.90;;;;;;5032758;28;20438;-89
2024/01/06 05:23:14;;;;;;;1.75;1.65;;;5.40;99.90;;;;;;5030468;28;20431;-89
2024/01/06 05:25:40;;;;;;;1.83;1.73;;;5.60;99.90;;;;;;5031358;28;20048;-87
2024/01/06 05:28:05;;;;;;;1.70;1.60;;;5.60;99.90;;;;;;5047363;28;20391;-88
2024/01/06 05:30:31;;;;;;;1.73;1.63;;;5.70;99.90;;;;;;5048248;28;20044;-89
2024/01/06 05:32:57;;;;;;;1.63;1.52;;;5.70;99.90;;;;;;5033867;28;20572;-89
2024/01/06 05:35:23;;;;;;;1.65;1.55;;;5.60;99.90;;;;;;5032013;28;20102;-88
2024/01/06 05:37:48;;;;;;;1.67;1.58;;;5.30;99.90;;;;;;5047693;28;20504;-89
2024/01/06 05:40:14;;;;;;;1.58;1.48;;;5.40;99.90;;;;;;5051430;28;20601;-90
2024/01/06 05:42:40;;;;;;;1.63;1.52;;;5.80;99.90;;;;;;5047928;28;20044;-89
2024/01/06 05:45:06;;;;;;;1.50;1.42;;;5.70;99.90;;;;;;5033219;28;20079;-90
2024/01/06 05:47:32;;;;;;;1.58;1.48;;;5.80;99.90;;;;;;5048111;28;20040;-89
2024/01/06 05:49:58;;;;;;;1.58;1.48;;;5.30;99.90;;;;;;5034623;28;20794;-90
2024/01/06 05:52:23;;;;;;;1.52;1.42;;;5.70;99.90;;;;;;5030062;28;20048;-89
2024/01/06 05:54:49;;;;;;;1.58;1.48;;;5.80;99.90;;;;;;5031513;28;20040;-88
2024/01/06 05:57:15;;;;;;;1.52;1.42;;;5.30;99.90;;;;;;5064329;28;20032;-88
2024/01/06 05:59:41;;;;;;;1.33;1.33;;;5.80;99.90;;;;;;5029626;28;20045;-88
2024/01/06 06:02:06;;;;;;;1.45;1.40;;;5.80;99.90;;;;;;5031042;28;20059;-89
2024/01/06 06:04:32;;;;;;;1.50;1.40;;;5.70;99.90;;;;;;5045935;28;20040;-90
2024/01/06 06:06:58;;;;;;;1.30;1.30;;;5.80;99.90;;;;;;5050877;28;20185;-89
2024/01/06 06:09:23;;;;;;;1.50;1.40;;;5.30;99.90;;;;;;5049830;28;20052;-89
2024/01/06 06:11:49;;;;;;;1.50;1.40;;;5.70;99.90;;;;;;5033544;28;20557;-89
2024/01/06 06:14:15;;;;;;;1.52;1.42;;;5.80;99.90;;;;;;5048187;28;20143;-89
2024/01/06 06:16:40;;;;;;;1.33;1.33;;;5.60;99.90;;;;;;5038047;28;20063;-90
2024/01/06 06:19:07;;;;;;;1.50;1.40;;;5.30;99.90;;;;;;5029905;28;20076;-89
2024/01/06 06:21:34;;;;;;;1.38;1.38;;;5.50;99.90;;;;;;5047860;28;20553;-88
2024/01/06 06:24:00;;;;;;;1.40;1.35;;;5.20;99.90;;;;;;5066315;28;20060;-89
2024/01/06 06:26:27;;;;;;;1.33;1.33;;;5.10;99.90;;;;;;5055778;28;20044;-88
2024/01/06 06:28:52;;;;;;;1.50;1.40;;;5.20;99.90;;;;;;5052281;28;20037;-89
2024/01/06 06:31:18;;;;;;;1.30;1.30;;;5.10;99.90;;;;;;5052271;28;20075;-89
2024/01/06 06:33:44;;;;;;;1.30;1.30;;;5.50;99.90;;;;;;5042034;28;20673;-89
2024/01/06 06:36:10;;;;;;;1.30;1.30;;;5.40;99.90;;;;;;5055841;28;20045;-88
2024/01/06 06:38:36;;;;;;;1.23;1.23;;;5.20;99.90;;;;;;5032542;28;20045;-89
2024/01/06 06:41:02;;;;;;;1.30;1.30;;;5.30;99.90;;;;;;5055242;28;20047;-88
2024/01/06 06:43:28;;;;;;;1.17;1.17;;;5.10;99.90;;;;;;5056690;28;20052;-89
2024/01/06 06:45:55;;;;;;;1.17;1.17;;;5.10;99.90;;;;;;5070630;28;20036;-89
2024/01/06 06:48:22;;;;;;;1.15;1.15;;;5.20;99.90;;;;;;5035866;28;20044;-88
2024/01/06 06:50:50;;;;;;;1.20;1.20;;;5.30;99.90;;;;;;5032445;28;20041;-88
2024/01/06 06:53:15;;;;;;;1.10;1.10;;;5.70;99.90;;;;;;5054344;28;20082;-89
2024/01/06 06:55:44;;;;;;;1.10;1.10;;;5.10;99.90;;;;;;5054275;28;20055;-89
2024/01/06 06:58:10;;;;;;;1.10;1.10;;;5.50;99.90;;;;;;5038041;28;20036;-90
2024/01/06 07:00:36;;;;;;;1.30;1.30;;;5.20;99.90;;;;;;5053492;28;20163;-89
2024/01/06 07:03:01;;;;;;;1.20;1.20;;;5.20;99.90;;;;;;5050829;28;20135;-89
2024/01/06 07:05:28;;;;;;;1.17;1.17;;;5.30;99.90;;;;;;5036777;28;20046;-88
2024/01/06 07:07:54;;;;;;;1.20;1.20;;;4.80;99.90;;;;;;5051536;28;20517;-88
2024/01/06 07:10:20;;;;;;;1.13;1.13;;;5.10;99.90;;;;;;5051280;28;20037;-91
2024/01/06 07:12:46;;;;;;;1.10;1.10;;;5.20;99.90;;;;;;5037650;28;20048;-89
2024/01/06 07:15:11;;;;;;;1.10;1.10;;;5.50;99.90;;;;;;5034487;28;20623;-90
2024/01/06 07:17:38;;;;;;;1.00;1.00;;;5.60;99.90;;;;;;5035171;28;20048;-88
2024/01/06 07:20:06;;;;;;;1.00;1.00;;;4.80;99.90;;;;;;5042488;28;20052;-90
2024/01/06 07:22:34;;;;;;;1.10;1.10;;;4.90;99.90;;;;;;5052804;28;20045;-89
2024/01/06 07:25:00;;;;;;;1.00;1.00;;;5.00;99.90;;;;;;5039577;28;20519;-89
2024/01/06 07:27:26;;;;;;;1.10;1.10;;;5.50;99.90;;;;;;5051345;28;20072;-89
2024/01/06 07:29:52;;;;;;;1.10;1.10;;;5.00;99.90;;;;;;5052953;28;20142;-88
2024/01/06 07:32:18;;;;;;;1.10;1.10;;;5.40;99.90;;;;;;5038064;28;20080;-89
2024/01/06 07:34:43;;;;;;;1.10;1.10;;;5.40;99.90;;;;;;5035813;28;20064;-88
2024/01/06 07:37:09;;;;;;;1.00;1.00;;;5.40;99.90;;;;;;5032795;28;20044;-88
2024/01/06 07:39:35;;;;;;;1.02;1.02;;;5.30;99.90;;;;;;5051455;28;20048;-89
2024/01/06 07:42:02;;;;;;;1.02;1.02;;;4.90;99.90;;;;;;5051947;28;20048;-89
2024/01/06 07:44:28;;;;;;;1.08;1.08;;;5.40;99.90;;;;;;5035609;28;20043;-89
2024/01/06 07:46:53;;;;;;;1.10;1.10;;;4.90;99.90;;;;;;5034883;28;20048;-88
2024/01/06 07:49:19;;;;;;;1.00;1.00;;;5.20;99.90;;;;;;5036753;28;20493;-90
2024/01/06 07:51:46;;;;;;;1.08;1.08;;;4.80;99.90;;;;;;5038818;28;20052;-90
2024/01/06 07:54:11;;;;;;;1.00;1.00;;;4.90;99.90;;;;;;5052828;28;20076;-87
2024/01/06 07:56:38;;;;;;;1.00;1.00;;;5.50;99.90;;;;;;5049328;28;20080;-89
2024/01/06 07:59:06;;;;;;;1.02;1.02;;;5.50;99.90;;;;;;5048339;28;20048;-88
2024/01/06 08:01:31;;;;;;;1.10;1.10;;;5.60;99.90;;;;;;5047822;28;20099;-88
2024/01/06 08:03:58;;;;;;;1.10;1.10;;;5.50;99.90;;;;;;5037440;28;20037;-89
2024/01/06 08:06:25;;;;;;;1.05;1.05;;;5.00;99.90;;;;;;5034881;28;20048;-88
2024/01/06 08:08:50;;;;;;;1.10;1.10;;;5.30;99.90;;;;;;5029772;28;20087;-88
2024/01/06 08:11:16;;;;;;;1.08;1.08;;;4.90;99.90;;;;;;5034187;28;20048;-89
2024/01/06 08:13:42;;;;;;;1.10;1.10;;;5.00;99.90;;;;;;5049075;28;20053;-89
2024/01/06 08:16:07;;;;;;;1.10;1.10;;;5.20;99.90;;;;;;5049660;28;20045;-89
2024/01/06 08:18:33;;;;;;;1.10;1.10;;;5.10;99.90;;;;;;5034526;28;20398;-87
2024/01/06 08:20:59;;;;;;;1.10;1.10;;;5.10;99.90;;;;;;5032493;28;20508;-89
2024/01/06 08:23:25;;;;;;;1.00;1.00;;;5.30;99.90;;;;;;5034094;28;20044;-89
2024/01/06 08:25:51;;;;;;;1.00;1.00;;;5.30;99.90;;;;;;5046852;28;20044;-89
2024/01/06 08:28:18;;;;;;;1.00;1.00;;;5.50;99.90;;;;;;5034789;28;20046;-88
2024/01/06 08:30:44;;;;;;;1.10;1.10;;;5.50;99.90;;;;;;5048778;28;20079;-89
2024/01/06 08:33:11;;;;;;;1.10;1.10;;;5.60;99.90;;;;;;5032054;28;20116;-89
2024/01/06 08:35:40;;;;;;;1.10;1.10;;;5.60;99.90;;;;;;5031953;28;20607;-90
2024/01/06 08:38:09;;;;;;;1.30;1.30;;;5.20;99.90;;;;;;5050916;28;20040;-89
2024/01/06 08:40:35;;;;;;;1.20;1.20;;;5.20;99.90;;;;;;5034729;28;20048;-87
2024/01/06 08:43:01;;;;;;;1.15;1.15;;;5.50;99.90;;;;;;5065854;28;20051;-90
2024/01/06 08:45:27;;;;;;;1.10;1.10;;;5.30;99.90;;;;;;5033624;28;20103;-89
2024/01/06 08:47:53;;;;;;;1.00;1.00;;;5.10;99.90;;;;;;5032579;28;20579;-89
2024/01/06 08:50:21;;;;;;;1.10;1.10;;;5.10;99.90;;;;;;5032981;28;20051;-87
2024/01/06 08:52:47;;;;;;;1.20;1.20;;;5.50;99.90;;;;;;5045682;28;20056;-89
2024/01/06 08:55:12;;;;;;;1.10;1.10;;;5.40;99.90;;;;;;5035723;28;20036;-88
2024/01/06 08:57:38;;;;;;;1.20;1.20;;;5.50;99.90;;;;;;5032414;28;20045;-88
2024/01/06 09:00:05;;;;;;;1.10;1.10;;;5.60;99.90;;;;;;5049008;28;20044;-88
2024/01/06 09:02:31;;;;;;;1.13;1.13;;;5.50;99.90;;;;;;5028152;28;20041;-89
2024/01/06 09:04:56;;;;;;;1.10;1.10;;;5.40;99.90;;;;;;5028969;28;20045;-89
2024/01/06 09:07:22;;;;;;;1.20;1.20;;;5.30;99.90;;;;;;5049396;28;20174;-89
2024/01/06 09:09:48;;;;;;;1.20;1.20;;;5.40;99.90;;;;;;5034299;28;20048;-89
2024/01/06 09:12:13;;;;;;;1.15;1.15;;;5.50;99.90;;;;;;5031990;28;20037;-88
2024/01/06 09:14:40;;;;;;;1.20;1.20;;;5.30;99.90;;;;;;5044193;28;20817;-89
2024/01/06 09:17:06;;;;;;;1.25;1.25;;;5.50;99.90;;;;;;5051446;28;20052;-89
2024/01/06 09:19:32;;;;;;;1.20;1.20;;;5.50;99.90;;;;;;5049117;28;20401;-90
2024/01/06 09:21:57;;;;;;;1.15;1.15;;;5.50;99.90;;;;;;5037191;28;20032;-88
2024/01/06 09:24:23;;;;;;;1.20;1.20;;;5.30;99.90;;;;;;5049615;28;20047;-90
2024/01/06 09:26:52;;;;;;;1.20;1.20;;;5.20;99.90;;;;;;5035723;28;20691;-89
2024/01/06 09:29:17;;;;;;;1.23;1.23;;;5.60;99.90;;;;;;5033173;28;20047;-90
2024/01/06 09:31:46;;;;;;;1.30;1.30;;;5.40;99.90;;;;;;5037970;28;20041;-89
2024/01/06 09:34:12;;;;;;;1.20;1.20;;;5.60;99.90;;;;;;5038065;28;20044;-89
2024/01/06 09:36:38;;;;;;;1.20;1.20;;;5.40;99.90;;;;;;5051722;28;20071;-89
2024/01/06 09:39:04;;;;;;;1.13;1.13;;;5.50;99.90;;;;;;5065976;28;20171;-89
2024/01/06 09:41:31;;;;;;;1.20;1.20;;;5.50;99.90;;;;;;5034858;28;20043;-90
2024/01/06 09:43:57;;;;;;;1.20;1.20;;;5.90;99.90;;;;;;5033841;28;20040;-88
2024/01/06 09:46:30;;;;;;;1.20;1.20;;;5.60;99.90;;;;;;5050375;28;20049;-89
2024/01/06 09:48:57;;;;;;;1.17;1.17;;;5.70;99.90;;;;;;5051302;28;20053;-89
2024/01/06 09:51:23;;;;;;;1.20;1.20;;;5.80;99.90;;;;;;5034931;28;20049;-89
2024/01/06 09:53:58;;;;;;;1.25;1.25;;;5.70;99.90;;;;;;5031479;28;20063;-89
2024/01/06 09:56:28;;;;;;;1.20;1.20;;;5.70;99.90;;;;;;5044590;28;20040;-90
2024/01/06 09:58:55;;;;;;;1.30;1.30;;;5.50;99.90;;;;;;5034747;28;20044;-89
2024/01/06 10:01:21;;;;;;;1.63;1.52;;;5.70;99.90;;;;;;5053598;28;20163;-88
2024/01/06 10:03:47;;;;;;;1.30;1.30;;;5.70;99.90;;;;;;5037050;28;20048;-88
2024/01/06 10:06:14;;;;;;;1.33;1.33;;;5.50;99.90;;;;;;5054675;28;20056;-90
2024/01/06 10:08:49;;;;;;;1.30;1.30;;;5.50;99.90;;;;;;5053572;28;20344;-90
2024/01/06 10:11:15;;;;;;;1.20;1.20;;;5.40;99.90;;;;;;5035127;28;20549;-89
2024/01/06 10:13:40;;;;;;;1.25;1.25;;;5.40;99.90;;;;;;5036948;28;20132;-89
2024/01/06 10:16:06;;;;;;;1.20;1.20;;;5.60;99.90;;;;;;5038077;28;20082;-89
2024/01/06 10:18:34;;;;;;;1.20;1.20;;;5.60;99.90;;;;;;5054362;28;20155;-89
2024/01/06 10:21:02;;;;;;;1.20;1.20;;;5.80;99.90;;;;;;5043712;28;20045;-90
2024/01/06 10:23:29;;;;;;;1.20;1.20;;;5.70;99.90;;;;;;5036791;28;20049;-88
2024/01/06 10:25:55;;;;;;;1.30;1.30;;;5.50;99.90;;;;;;5037167;28;20036;-88
2024/01/06 10:28:24;;;;;;;1.23;1.23;;;5.50;99.90;;;;;;5040153;28;20047;-90
2024/01/06 10:30:55;;;;;;;1.20;1.20;;;5.70;99.90;;;;;;5055894;28;20537;-89
2024/01/06 10:33:25;;;;;;;1.23;1.23;;;5.50;99.90;;;;;;5054459;28;20492;-88
2024/01/06 10:35:52;;;;;;;1.30;1.30;;;5.60;99.90;;;;;;5056000;28;20041;-89
2024/01/06 10:38:19;;;;;;;1.20;1.20;;;5.50;99.90;;;;;;5054111;28;20071;-88
2024/01/06 10:41:09;;;;;;;1.15;1.15;;;5.50;99.90;;;;;;5056635;28;20432;-90
2024/01/06 10:43:41;;;;;;;1.30;1.30;;;5.50;99.90;;;;;;5036658;28;20075;-88
2024/01/06 10:46:10;;;;;;;1.20;1.20;;;5.60;99.90;;;;;;5039815;28;20040;-89
2024/01/06 10:48:38;;;;;;;1.17;1.17;;;5.50;99.90;;;;;;5051411;28;20599;-88
2024/01/06 10:51:07;;;;;;;1.20;1.20;;;5.70;99.90;;;;;;5037959;28;20510;-88
2024/01/06 10:53:35;;;;;;;1.17;1.17;;;5.60;99.90;;;;;;5038438;28;20037;-90
2024/01/06 10:56:01;;;;;;;1.20;1.20;;;5.60;99.90;;;;;;5053808;28;20040;-90
2024/01/06 10:58:28;;;;;;;1.20;1.20;;;5.50;99.90;;;;;;5039405;28;20405;-90
2024/01/06 11:00:56;;;;;;;1.10;1.10;;;5.50;99.90;;;;;;5036978;28;20051;-91
2024/01/06 11:03:22;;;;;;;1.10;1.10;;;5.70;99.90;;;;;;5068025;28;20055;-91
2024/01/06 11:05:48;;;;;;;1.10;1.10;;;5.80;99.90;;;;;;5052921;28;20383;-89
2024/01/06 11:08:17;;;;;;;1.20;1.20;;;5.70;99.90;;;;;;5051721;28;20042;-89
2024/01/06 11:10:44;;;;;;;1.10;1.10;;;5.80;99.90;;;;;;5033988;28;20036;-91
2024/01/06 11:13:12;;;;;;;1.20;1.20;;;5.70;99.90;;;;;;5039609;28;20143;-90
2024/01/06 11:15:46;;;;;;;1.27;1.27;;;5.50;99.90;;;;;;5035037;28;20045;-90
2024/01/06 11:18:35;;;;;;;1.20;1.20;;;5.50;99.90;;;;;;5038761;28;20619;-89
2024/01/06 11:21:25;;;;;;;1.20;1.20;;;5.60;99.90;;;;;;5049998;28;20056;-89
2024/01/06 11:24:12;;;;;;;1.10;1.10;;;5.50;99.90;;;;;;5033747;28;20040;-88
2024/01/06 11:26:40;;;;;;;1.10;1.10;;;5.60;99.90;;;;;;5034000;28;21465;-88
2024/01/06 11:29:07;;;;;;;1.10;1.10;;;5.60;99.90;;;;;;5034979;28;20093;-89
2024/01/06 11:31:34;;;;;;;1.10;1.10;;;5.40;99.90;;;;;;5034411;28;20045;-89
2024/01/06 11:34:18;;;;;;;1.10;1.10;;;5.60;99.90;;;;;;5036088;28;20044;-90
2024/01/06 11:36:46;;;;;;;1.10;1.10;;;5.50;99.90;;;;;;5049227;28;20490;-90
2024/01/06 11:39:34;;;;;;;1.10;1.10;;;5.60;99.90;;;;;;5032783;28;20106;-88
2024/01/06 11:41:59;;;;;;;1.10;1.10;;;5.50;99.90;;;;;;5028990;28;20049;-88
2024/01/06 11:44:28;;;;;;;1.20;1.20;;;5.60;99.90;;;;;;5041483;28;20512;-89
2024/01/06 11:46:58;;;;;;;1.10;1.10;;;5.30;99.90;;;;;;5033833;28;20048;-90
2024/01/06 11:49:29;;;;;;;1.20;1.20;;;5.30;99.90;;;;;;5029041;28;20098;-89
2024/01/06 11:51:56;;;;;;;1.10;1.10;;;5.40;99.90;;;;;;5038059;28;20483;-89
2024/01/06 11:54:22;;;;;;;1.20;1.20;;;5.40;99.90;;;;;;5052477;28;20071;-89
2024/01/06 11:56:48;;;;;;;1.10;1.10;;;5.50;99.90;;;;;;5051615;28;20064;-88
2024/01/06 11:59:14;;;;;;;1.10;1.10;;;5.40;99.90;;;;;;5035855;28;20099;-89
2024/01/06 12:01:40;;;;;;;1.10;1.10;;;5.60;99.90;;;;;;5027210;28;20048;-89
2024/01/06 12:04:06;;;;;;;1.20;1.20;;;5.70;99.90;;;;;;5050436;28;20056;-88
2024/01/06 12:06:33;;;;;;;1.10;1.10;;;5.50;99.90;;;;;;5034049;28;20057;-89
2024/01/06 12:09:10;;;;;;;1.13;1.13;;;5.40;99.90;;;;;;5044567;28;20642;-88
2024/01/06 12:11:39;;;;;;;1.10;1.10;;;5.40;99.90;;;;;;5051384;28;20574;-90
2024/01/06 12:14:06;;;;;;;1.10;1.10;;;5.50;99.90;;;;;;5036722;28;20044;-89
2024/01/06 12:16:32;;;;;;;1.10;1.10;;;5.40;99.90;;;;;;5051569;28;20040;-90
2024/01/06 12:19:00;;;;;;;1.10;1.10;;;5.40;99.90;;;;;;5034140;28;20385;-89
2024/01/06 12:21:29;;;;;;;1.20;1.20;;;5.60;99.90;;;;;;5048771;28;20072;-89
2024/01/06 12:24:11;;;;;;;1.20;1.20;;;5.60;99.90;;;;;;5033021;28;20393;-88
2024/01/06 12:26:37;;;;;;;1.15;1.15;;;5.50;99.90;;;;;;5049453;28;20047;-89
2024/01/06 12:29:04;;;;;;;1.20;1.20;;;5.50;99.90;;;;;;5053890;28;20040;-90
2024/01/06 12:31:30;;;;;;;1.17;1.17;;;5.40;99.90;;;;;;5068986;28;20044;-89
2024/01/06 12:33:56;;;;;;;1.20;1.20;;;5.40;99.90;;;;;;5037253;28;20539;-90
2024/01/06 12:36:22;;;;;;;1.20;1.20;;;5.40;99.90;;;;;;5039565;28;20105;-90
2024/01/06 12:38:47;;;;;;;1.13;1.13;;;5.60;99.90;;;;;;5034576;28;20051;-87
2024/01/06 12:41:13;;;;;;;1.30;1.30;;;5.60;99.90;;;;;;5053089;28;20047;-90
2024/01/06 12:43:39;;;;;;;1.20;1.20;;;5.50;99.90;;;;;;5034949;28;20504;-89
2024/01/06 12:46:04;;;;;;;1.20;1.20;;;5.50;99.90;;;;;;5050796;28;20090;-89
2024/01/06 12:48:30;;;;;;;1.20;1.20;;;5.50;99.90;;;;;;5035462;28;20041;-89
2024/01/06 12:50:56;;;;;;;1.23;1.23;;;5.20;99.90;;;;;;5047704;28;20581;-89
2024/01/06 12:53:22;;;;;;;1.10;1.10;;;5.50;99.90;;;;;;5036425;28;20048;-90
2024/01/06 12:55:47;;;;;;;1.15;1.15;;;5.40;99.90;;;;;;5036530;28;20040;-89